createdAt,value
2019-06-27T00:00:10.362Z,0.00
2019-06-27T00:01:10.366Z,0.00
2019-06-27T00:02:10.370Z,0.00
2019-06-27T00:03:10.367Z,0.00
2019-06-27T00:04:10.385Z,0.00
2019-06-27T00:05:10.376Z,0.00
2019-06-27T00:06:10.372Z,0.00
2019-06-27T00:07:10.373Z,0.00
2019-06-27T00:08:10.376Z,0.00
2019-06-27T00:09:10.378Z,0.00
2019-06-27T00:10:10.377Z,0.00
2019-06-27T00:11:10.426Z,0.00
2019-06-27T00:12:10.385Z,0.00
2019-06-27T00:13:10.384Z,0.00
2019-06-27T00:14:10.382Z,0.00
2019-06-27T00:15:10.386Z,0.00
2019-06-27T00:16:10.387Z,0.00
2019-06-27T00:17:10.390Z,0.00
2019-06-27T00:18:10.386Z,0.00
2019-06-27T00:19:10.391Z,0.00
2019-06-27T00:20:10.388Z,0.00
2019-06-27T00:21:10.389Z,0.00
2019-06-27T00:22:10.396Z,0.00
2019-06-27T00:23:10.387Z,0.00
2019-06-27T00:24:10.390Z,0.00
2019-06-27T00:25:10.395Z,0.00
2019-06-27T00:26:10.391Z,0.00
2019-06-27T00:27:10.402Z,0.00
2019-06-27T00:28:10.404Z,0.00
2019-06-27T00:29:10.396Z,0.00
2019-06-27T00:30:10.393Z,0.00
2019-06-27T00:31:10.396Z,0.00
2019-06-27T00:32:10.397Z,0.00
2019-06-27T00:33:10.402Z,0.00
2019-06-27T00:34:10.399Z,0.00
2019-06-27T00:35:10.398Z,0.00
2019-06-27T00:36:10.400Z,0.00
2019-06-27T00:37:10.406Z,0.00
2019-06-27T00:38:10.401Z,0.00
2019-06-27T00:39:10.399Z,0.00
2019-06-27T00:40:10.400Z,0.00
2019-06-27T00:41:10.403Z,0.00
2019-06-27T00:42:10.399Z,0.00
2019-06-27T00:43:10.403Z,0.00
2019-06-27T00:44:10.401Z,0.00
2019-06-27T00:45:10.581Z,0.00
2019-06-27T00:46:10.405Z,0.00
2019-06-27T00:47:10.402Z,0.00
2019-06-27T00:48:10.405Z,0.00
2019-06-27T00:49:10.399Z,0.00
2019-06-27T00:50:10.406Z,0.00
2019-06-27T00:51:10.405Z,0.00
2019-06-27T00:52:10.407Z,0.00
2019-06-27T00:53:10.407Z,0.00
2019-06-27T00:54:10.402Z,0.00
2019-06-27T00:55:10.404Z,0.00
2019-06-27T00:56:10.406Z,0.00
2019-06-27T00:57:14.552Z,0.00
2019-06-27T00:58:10.409Z,0.00
2019-06-27T00:59:10.403Z,0.00
2019-06-27T01:00:10.430Z,0.00
2019-06-27T01:01:10.420Z,0.00
2019-06-27T01:02:10.421Z,0.00
2019-06-27T01:03:10.408Z,0.00
2019-06-27T01:04:10.410Z,0.00
2019-06-27T01:05:10.408Z,0.00
2019-06-27T01:06:10.406Z,0.00
2019-06-27T01:07:10.404Z,0.00
2019-06-27T01:08:10.413Z,0.00
2019-06-27T01:09:10.404Z,0.00
2019-06-27T01:10:10.411Z,0.00
2019-06-27T01:11:10.406Z,0.00
2019-06-27T01:12:10.403Z,0.00
2019-06-27T01:13:10.406Z,0.00
2019-06-27T01:14:10.404Z,0.00
2019-06-27T01:15:10.401Z,0.00
2019-06-27T01:16:10.406Z,0.00
2019-06-27T01:17:10.413Z,0.00
2019-06-27T01:18:10.404Z,0.00
2019-06-27T01:19:10.408Z,0.00
2019-06-27T01:20:10.409Z,0.00
2019-06-27T01:21:10.409Z,0.00
2019-06-27T01:22:10.403Z,0.00
2019-06-27T01:23:10.409Z,0.00
2019-06-27T01:24:10.419Z,0.00
2019-06-27T01:25:10.405Z,0.00
2019-06-27T01:26:10.403Z,0.00
2019-06-27T01:27:10.405Z,0.00
2019-06-27T01:28:10.403Z,0.00
2019-06-27T01:29:10.406Z,0.00
2019-06-27T01:30:10.399Z,0.00
2019-06-27T01:31:10.422Z,0.00
2019-06-27T01:32:10.403Z,0.00
2019-06-27T01:33:10.400Z,0.00
2019-06-27T01:34:10.399Z,0.00
2019-06-27T01:35:10.404Z,0.00
2019-06-27T01:36:10.413Z,0.00
2019-06-27T01:37:10.402Z,0.00
2019-06-27T01:38:10.400Z,0.00
2019-06-27T01:39:10.401Z,0.00
2019-06-27T01:40:10.403Z,0.00
2019-06-27T01:41:10.405Z,0.00
2019-06-27T01:42:10.399Z,0.00
2019-06-27T01:43:10.398Z,0.00
2019-06-27T01:44:10.399Z,0.00
2019-06-27T01:45:10.400Z,0.00
2019-06-27T01:46:10.397Z,0.00
2019-06-27T01:47:10.397Z,0.00
2019-06-27T01:48:10.399Z,0.00
2019-06-27T01:49:10.395Z,0.00
2019-06-27T01:50:10.400Z,0.00
2019-06-27T01:51:10.399Z,0.00
2019-06-27T01:52:10.396Z,0.00
2019-06-27T01:53:10.393Z,0.00
2019-06-27T01:54:10.390Z,0.00
2019-06-27T01:55:10.391Z,0.00
2019-06-27T01:56:10.399Z,0.00
2019-06-27T01:57:10.390Z,0.00
2019-06-27T01:58:10.388Z,0.00
2019-06-27T01:59:10.390Z,0.00
2019-06-27T02:00:10.394Z,0.00
2019-06-27T02:01:10.396Z,0.00
2019-06-27T02:02:10.387Z,0.00
2019-06-27T02:03:10.391Z,0.00
2019-06-27T02:04:10.400Z,0.00
2019-06-27T02:05:10.387Z,4.00
2019-06-27T02:06:10.386Z,4.00
2019-06-27T02:07:10.384Z,0.00
2019-06-27T02:08:10.393Z,0.00
2019-06-27T02:09:10.387Z,4.00
2019-06-27T02:10:10.385Z,4.00
2019-06-27T02:11:10.391Z,4.00
2019-06-27T02:12:10.384Z,4.00
2019-06-27T02:13:10.382Z,4.00
2019-06-27T02:14:10.380Z,4.00
2019-06-27T02:15:10.385Z,4.00
2019-06-27T02:16:10.382Z,4.00
2019-06-27T02:17:10.386Z,12.00
2019-06-27T02:18:10.372Z,8.00
2019-06-27T02:19:10.404Z,12.00
2019-06-27T02:20:10.378Z,12.00
2019-06-27T02:21:10.378Z,12.00
2019-06-27T02:22:10.374Z,16.00
2019-06-27T02:23:10.376Z,20.00
2019-06-27T02:24:10.376Z,20.00
2019-06-27T02:25:10.375Z,24.00
2019-06-27T02:26:10.385Z,28.00
2019-06-27T02:27:10.370Z,28.00
2019-06-27T02:28:10.374Z,36.00
2019-06-27T02:29:10.369Z,40.00
2019-06-27T02:30:10.374Z,40.00
2019-06-27T02:31:10.373Z,44.00
2019-06-27T02:32:10.374Z,48.00
2019-06-27T02:33:10.373Z,56.00
2019-06-27T02:34:10.368Z,64.00
2019-06-27T02:35:10.395Z,68.00
2019-06-27T02:36:10.367Z,80.00
2019-06-27T02:37:10.411Z,88.00
2019-06-27T02:38:10.366Z,92.00
2019-06-27T02:39:10.365Z,104.00
2019-06-27T02:40:10.367Z,112.00
2019-06-27T02:41:10.362Z,120.00
2019-06-27T02:42:10.365Z,128.00
2019-06-27T02:43:10.382Z,132.00
2019-06-27T02:44:10.362Z,144.00
2019-06-27T02:45:10.363Z,152.00
2019-06-27T02:46:10.359Z,164.00
2019-06-27T02:47:10.364Z,168.00
2019-06-27T02:48:10.362Z,180.00
2019-06-27T02:49:10.356Z,184.00
2019-06-27T02:50:10.470Z,196.00
2019-06-27T02:51:10.351Z,192.00
2019-06-27T02:52:10.347Z,204.00
2019-06-27T02:53:10.360Z,220.00
2019-06-27T02:54:10.347Z,240.00
2019-06-27T02:55:10.353Z,264.00
2019-06-27T02:56:10.350Z,284.00
2019-06-27T02:57:10.348Z,296.00
2019-06-27T02:58:28.837Z,300.00
2019-06-27T02:59:10.348Z,312.00
2019-06-27T03:00:10.349Z,340.00
2019-06-27T03:01:10.343Z,372.00
2019-06-27T03:02:10.340Z,388.00
2019-06-27T03:03:10.340Z,424.00
2019-06-27T03:04:10.337Z,464.00
2019-06-27T03:05:10.349Z,504.00
2019-06-27T03:06:10.342Z,536.00
2019-06-27T03:07:10.337Z,568.00
2019-06-27T03:08:10.335Z,568.00
2019-06-27T03:09:10.345Z,584.00
2019-06-27T03:10:10.333Z,560.00
2019-06-27T03:11:10.332Z,544.00
2019-06-27T03:12:10.337Z,524.00
2019-06-27T03:13:10.331Z,528.00
2019-06-27T03:14:10.335Z,576.00
2019-06-27T03:15:10.353Z,564.00
2019-06-27T03:16:10.325Z,572.00
2019-06-27T03:17:10.340Z,580.00
2019-06-27T03:18:10.321Z,680.00
2019-06-27T03:19:10.322Z,724.00
2019-06-27T03:20:10.343Z,780.00
2019-06-27T03:21:10.324Z,908.00
2019-06-27T03:22:10.319Z,860.00
2019-06-27T03:23:10.323Z,884.00
2019-06-27T03:24:10.323Z,972.00
2019-06-27T03:25:10.319Z,1020.00
2019-06-27T03:26:10.318Z,1080.00
2019-06-27T03:27:10.315Z,1192.00
2019-06-27T03:28:10.314Z,1140.00
2019-06-27T03:29:10.323Z,1124.00
2019-06-27T03:30:10.315Z,1428.00
2019-06-27T03:31:10.349Z,1664.00
2019-06-27T03:32:10.340Z,2308.00
2019-06-27T03:33:10.312Z,2416.00
2019-06-27T03:34:10.309Z,2496.00
2019-06-27T03:35:10.319Z,2628.00
2019-06-27T03:36:10.310Z,1684.00
2019-06-27T03:37:10.310Z,2848.00
2019-06-27T03:38:10.313Z,1804.00
2019-06-27T03:39:10.306Z,2648.00
2019-06-27T03:40:10.300Z,3304.00
2019-06-27T03:41:10.327Z,3576.00
2019-06-27T03:42:10.296Z,3216.00
2019-06-27T03:43:10.297Z,2088.00
2019-06-27T03:44:10.295Z,3584.00
2019-06-27T03:45:15.037Z,1956.00
2019-06-27T03:46:10.296Z,2032.00
2019-06-27T03:47:10.293Z,3636.00
2019-06-27T03:48:10.295Z,4236.00
2019-06-27T03:49:10.307Z,2956.00
2019-06-27T03:50:10.296Z,1964.00
2019-06-27T03:51:10.291Z,1940.00
2019-06-27T03:52:10.292Z,1928.00
2019-06-27T03:53:10.293Z,1852.00
2019-06-27T03:54:10.287Z,1796.00
2019-06-27T03:55:10.291Z,1844.00
2019-06-27T03:56:10.289Z,1904.00
2019-06-27T03:57:10.285Z,1896.00
2019-06-27T03:58:10.285Z,1948.00
2019-06-27T03:59:12.817Z,2032.00
2019-06-27T04:00:10.432Z,1680.00
2019-06-27T04:01:10.283Z,1632.00
2019-06-27T04:02:10.282Z,2004.00
2019-06-27T04:03:10.305Z,1844.00
2019-06-27T04:04:10.301Z,1712.00
2019-06-27T04:05:10.282Z,1728.00
2019-06-27T04:06:10.284Z,1756.00
2019-06-27T04:07:10.280Z,3780.00
2019-06-27T04:08:10.278Z,5264.00
2019-06-27T04:09:10.275Z,5332.00
2019-06-27T04:10:10.276Z,5388.00
2019-06-27T04:11:10.286Z,5448.00
2019-06-27T04:12:10.270Z,5560.00
2019-06-27T04:13:10.274Z,5600.00
2019-06-27T04:14:10.280Z,5636.00
2019-06-27T04:15:10.298Z,5752.00
2019-06-27T04:16:10.269Z,5756.00
2019-06-27T04:17:10.286Z,5752.00
2019-06-27T04:18:10.266Z,5816.00
2019-06-27T04:19:10.267Z,5888.00
2019-06-27T04:20:10.273Z,5932.00
2019-06-27T04:21:10.265Z,6132.00
2019-06-27T04:22:10.267Z,6232.00
2019-06-27T04:23:10.260Z,6540.00
2019-06-27T04:24:10.265Z,6968.00
2019-06-27T04:25:10.263Z,7316.00
2019-06-27T04:26:10.260Z,3960.00
2019-06-27T04:27:10.266Z,5156.00
2019-06-27T04:28:10.294Z,6876.00
2019-06-27T04:29:10.265Z,2992.00
2019-06-27T04:30:10.270Z,2584.00
2019-06-27T04:31:10.259Z,2864.00
2019-06-27T04:32:10.269Z,2588.00
2019-06-27T04:33:10.259Z,6664.00
2019-06-27T04:34:10.255Z,6756.00
2019-06-27T04:35:10.269Z,7304.00
2019-06-27T04:36:10.274Z,7212.00
2019-06-27T04:37:10.261Z,3860.00
2019-06-27T04:38:10.263Z,6972.00
2019-06-27T04:39:10.252Z,4040.00
2019-06-27T04:40:10.259Z,4120.00
2019-06-27T04:41:10.263Z,4120.00
2019-06-27T04:42:10.253Z,3220.00
2019-06-27T04:43:10.257Z,3856.00
2019-06-27T04:44:10.253Z,4208.00
2019-06-27T04:45:10.266Z,7404.00
2019-06-27T04:46:10.252Z,5996.00
2019-06-27T04:47:10.258Z,7784.00
2019-06-27T04:48:10.254Z,5892.00
2019-06-27T04:49:13.393Z,7792.00
2019-06-27T04:50:10.253Z,4764.00
2019-06-27T04:51:10.250Z,9136.00
2019-06-27T04:52:10.253Z,7956.00
2019-06-27T04:53:10.247Z,8192.00
2019-06-27T04:54:10.250Z,10692.00
2019-06-27T04:55:10.254Z,10384.00
2019-06-27T04:56:10.248Z,10180.00
2019-06-27T04:57:10.250Z,7096.00
2019-06-27T04:58:10.251Z,6588.00
2019-06-27T04:59:10.249Z,9776.00
2019-06-27T05:00:10.247Z,5620.00
2019-06-27T05:01:10.251Z,9892.00
2019-06-27T05:02:10.248Z,9340.00
2019-06-27T05:03:10.249Z,8328.00
2019-06-27T05:04:10.251Z,6976.00
2019-06-27T05:05:10.249Z,5020.00
2019-06-27T05:06:10.325Z,7568.00
2019-06-27T05:07:10.252Z,7648.00
2019-06-27T05:08:14.380Z,7324.00
2019-06-27T05:09:10.250Z,3968.00
2019-06-27T05:10:10.251Z,7020.00
2019-06-27T05:11:10.250Z,3540.00
2019-06-27T05:12:10.249Z,5948.00
2019-06-27T05:13:10.249Z,7468.00
2019-06-27T05:14:10.247Z,7464.00
2019-06-27T05:15:10.253Z,7456.00
2019-06-27T05:16:10.258Z,7496.00
2019-06-27T05:17:10.251Z,7492.00
2019-06-27T05:18:10.254Z,7456.00
2019-06-27T05:19:10.252Z,7368.00
2019-06-27T05:20:10.257Z,7356.00
2019-06-27T05:21:10.252Z,7384.00
2019-06-27T05:22:10.255Z,7416.00
2019-06-27T05:23:10.308Z,7416.00
2019-06-27T05:24:10.254Z,7400.00
2019-06-27T05:25:10.254Z,7412.00
2019-06-27T05:26:10.255Z,7368.00
2019-06-27T05:27:10.254Z,7340.00
2019-06-27T05:28:10.256Z,7344.00
2019-06-27T05:29:10.259Z,7340.00
2019-06-27T05:30:10.669Z,7412.00
2019-06-27T05:31:10.262Z,7404.00
2019-06-27T05:32:10.288Z,7412.00
2019-06-27T05:33:10.261Z,7472.00
2019-06-27T05:34:10.266Z,7608.00
2019-06-27T05:35:10.338Z,8240.00
2019-06-27T05:36:10.579Z,8648.00
2019-06-27T05:37:10.264Z,9540.00
2019-06-27T05:38:10.267Z,9820.00
2019-06-27T05:39:10.263Z,11156.00
2019-06-27T05:40:10.261Z,12212.00
2019-06-27T05:41:10.282Z,13340.00
2019-06-27T05:42:10.270Z,12928.00
2019-06-27T05:43:10.272Z,12156.00
2019-06-27T05:44:10.285Z,6920.00
2019-06-27T05:45:10.270Z,8952.00
2019-06-27T05:46:10.273Z,8460.00
2019-06-27T05:47:10.274Z,9976.00
2019-06-27T05:48:10.279Z,7804.00
2019-06-27T05:49:10.287Z,11036.00
2019-06-27T05:50:10.282Z,6176.00
2019-06-27T05:51:10.283Z,5492.00
2019-06-27T05:52:10.288Z,6132.00
2019-06-27T05:53:10.301Z,7464.00
2019-06-27T05:54:10.289Z,8780.00
2019-06-27T05:55:10.291Z,8348.00
2019-06-27T05:56:10.291Z,8180.00
2019-06-27T05:57:10.299Z,8400.00
2019-06-27T05:58:10.295Z,8824.00
2019-06-27T05:59:10.300Z,8300.00
2019-06-27T06:00:26.838Z,8728.00
2019-06-27T06:01:10.344Z,9568.00
2019-06-27T06:02:10.315Z,8432.00
2019-06-27T06:03:10.303Z,8140.00
2019-06-27T06:04:10.307Z,8036.00
2019-06-27T06:05:10.324Z,4708.00
2019-06-27T06:06:10.312Z,8320.00
2019-06-27T06:07:10.313Z,9136.00
2019-06-27T06:08:10.311Z,10164.00
2019-06-27T06:09:10.314Z,10424.00
2019-06-27T06:10:10.316Z,9356.00
2019-06-27T06:11:10.320Z,12852.00
2019-06-27T06:12:10.326Z,13484.00
2019-06-27T06:13:10.325Z,13400.00
2019-06-27T06:14:10.321Z,9828.00
2019-06-27T06:15:10.326Z,12288.00
2019-06-27T06:16:10.330Z,8436.00
2019-06-27T06:17:10.330Z,12572.00
2019-06-27T06:18:10.335Z,13796.00
2019-06-27T06:19:10.333Z,12532.00
2019-06-27T06:20:10.337Z,15200.00
2019-06-27T06:21:10.337Z,21440.00
2019-06-27T06:22:10.365Z,31104.00
2019-06-27T06:23:10.346Z,17632.00
2019-06-27T06:24:10.347Z,16800.00
2019-06-27T06:25:10.356Z,44864.00
2019-06-27T06:26:10.359Z,46016.00
2019-06-27T06:27:10.348Z,46304.00
2019-06-27T06:28:10.358Z,46080.00
2019-06-27T06:29:10.364Z,46272.00
2019-06-27T06:30:10.363Z,45184.00
2019-06-27T06:31:11.221Z,49472.00
2019-06-27T06:32:10.374Z,47584.00
2019-06-27T06:33:10.394Z,49312.00
2019-06-27T06:34:10.376Z,49664.00
2019-06-27T06:35:10.380Z,48832.00
2019-06-27T06:36:10.392Z,48096.00
2019-06-27T06:37:10.395Z,48640.00
2019-06-27T06:38:10.388Z,50112.00
2019-06-27T06:39:10.395Z,49120.00
2019-06-27T06:40:10.400Z,46688.00
2019-06-27T06:41:10.397Z,41664.00
2019-06-27T06:42:10.410Z,44960.00
2019-06-27T06:43:10.406Z,45120.00
2019-06-27T06:44:10.409Z,38336.00
2019-06-27T06:45:10.410Z,44960.00
2019-06-27T06:46:10.413Z,54304.00
2019-06-27T06:47:10.441Z,50176.00
2019-06-27T06:48:10.425Z,33984.00
2019-06-27T06:49:10.430Z,51872.00
2019-06-27T06:50:10.431Z,50688.00
2019-06-27T06:51:10.434Z,44864.00
2019-06-27T06:52:10.441Z,46464.00
2019-06-27T06:53:10.447Z,13932.00
2019-06-27T06:54:10.449Z,53536.00
2019-06-27T06:55:10.448Z,53056.00
2019-06-27T06:56:10.451Z,57408.00
2019-06-27T06:57:10.462Z,58208.00
2019-06-27T06:58:10.461Z,60512.00
2019-06-27T06:59:10.463Z,60544.00
2019-06-27T07:00:10.487Z,58752.00
2019-06-27T07:01:10.477Z,58688.00
2019-06-27T07:02:10.474Z,56768.00
2019-06-27T07:03:10.480Z,52192.00
2019-06-27T07:04:10.526Z,54368.00
2019-06-27T07:05:10.489Z,56960.00
2019-06-27T07:06:10.485Z,55264.00
2019-06-27T07:07:13.163Z,57344.00
2019-06-27T07:08:10.500Z,64224.00
2019-06-27T07:09:10.520Z,64512.00
2019-06-27T07:10:10.499Z,62304.00
2019-06-27T07:11:10.510Z,64640.00
2019-06-27T07:12:10.517Z,66976.00
2019-06-27T07:13:10.512Z,64640.00
2019-06-27T07:14:10.518Z,63360.00
2019-06-27T07:15:10.521Z,63648.00
2019-06-27T07:16:10.523Z,62560.00
2019-06-27T07:17:10.529Z,60960.00
2019-06-27T07:18:10.531Z,59264.00
2019-06-27T07:19:10.532Z,59552.00
2019-06-27T07:20:10.547Z,63136.00
2019-06-27T07:21:10.543Z,65440.00
2019-06-27T07:22:10.568Z,64768.00
2019-06-27T07:23:10.577Z,64032.00
2019-06-27T07:24:10.557Z,64064.00
2019-06-27T07:25:10.556Z,64896.00
2019-06-27T07:26:10.560Z,62912.00
2019-06-27T07:27:10.569Z,62048.00
2019-06-27T07:28:10.570Z,66944.00
2019-06-27T07:29:10.596Z,71744.00
2019-06-27T07:30:10.583Z,68672.00
2019-06-27T07:31:17.765Z,66880.00
2019-06-27T07:32:10.585Z,67488.00
2019-06-27T07:33:10.595Z,72864.00
2019-06-27T07:34:10.593Z,71136.00
2019-06-27T07:35:10.605Z,66816.00
2019-06-27T07:36:10.599Z,66368.00
2019-06-27T07:37:10.609Z,67232.00
2019-06-27T07:38:10.614Z,67264.00
2019-06-27T07:39:10.624Z,69504.00
2019-06-27T07:40:10.621Z,68416.00
2019-06-27T07:41:10.627Z,62400.00
2019-06-27T07:42:10.641Z,65088.00
2019-06-27T07:43:10.638Z,74368.00
2019-06-27T07:44:10.637Z,74240.00
2019-06-27T07:45:10.642Z,66016.00
2019-06-27T07:46:24.022Z,64512.00
2019-06-27T07:47:10.653Z,72256.00
2019-06-27T07:48:10.658Z,74976.00
2019-06-27T07:49:10.672Z,70752.00
2019-06-27T07:50:10.670Z,67872.00
2019-06-27T07:51:10.670Z,65984.00
2019-06-27T07:52:10.675Z,66848.00
2019-06-27T07:53:10.709Z,68960.00
2019-06-27T07:54:10.687Z,71904.00
2019-06-27T07:55:10.694Z,76416.00
2019-06-27T07:56:10.698Z,78240.00
2019-06-27T07:57:10.708Z,74560.00
2019-06-27T07:58:10.708Z,70944.00
2019-06-27T07:59:10.715Z,73184.00
2019-06-27T08:00:10.719Z,76352.00
2019-06-27T08:01:10.725Z,77120.00
2019-06-27T08:02:10.728Z,78144.00
2019-06-27T08:03:10.734Z,78080.00
2019-06-27T08:04:10.743Z,81600.00
2019-06-27T08:05:10.751Z,83136.00
2019-06-27T08:06:10.765Z,83232.00
2019-06-27T08:07:10.752Z,81696.00
2019-06-27T08:08:10.761Z,78752.00
2019-06-27T08:09:10.770Z,77760.00
2019-06-27T08:10:10.775Z,81856.00
2019-06-27T08:11:10.784Z,82752.00
2019-06-27T08:12:10.804Z,80704.00
2019-06-27T08:13:10.795Z,79072.00
2019-06-27T08:14:10.792Z,77120.00
2019-06-27T08:15:10.807Z,77344.00
2019-06-27T08:16:10.806Z,79968.00
2019-06-27T08:17:10.813Z,83136.00
2019-06-27T08:18:10.818Z,85760.00
2019-06-27T08:19:10.826Z,92160.00
2019-06-27T08:20:10.832Z,95456.00
2019-06-27T08:21:10.838Z,87904.00
2019-06-27T08:22:10.845Z,76992.00
2019-06-27T08:23:10.854Z,72768.00
2019-06-27T08:24:10.861Z,77792.00
2019-06-27T08:25:10.864Z,80640.00
2019-06-27T08:26:10.888Z,79808.00
2019-06-27T08:27:10.879Z,78368.00
2019-06-27T08:28:10.889Z,77312.00
2019-06-27T08:29:10.897Z,79744.00
2019-06-27T08:30:10.903Z,87104.00
2019-06-27T08:31:10.989Z,93920.00
2019-06-27T08:32:10.911Z,95616.00
2019-06-27T08:33:10.918Z,90976.00
2019-06-27T08:34:10.925Z,85856.00
2019-06-27T08:35:10.932Z,83680.00
2019-06-27T08:36:10.949Z,90048.00
2019-06-27T08:37:10.946Z,96672.00
2019-06-27T08:38:10.953Z,100608.00
2019-06-27T08:39:10.958Z,98816.00
2019-06-27T08:40:10.965Z,93600.00
2019-06-27T08:41:13.962Z,90816.00
2019-06-27T08:42:10.979Z,92576.00
2019-06-27T08:43:10.987Z,96864.00
2019-06-27T08:44:10.995Z,95968.00
2019-06-27T08:45:11.002Z,91296.00
2019-06-27T08:46:11.008Z,89024.00
2019-06-27T08:47:11.016Z,92928.00
2019-06-27T08:48:11.023Z,101600.00
2019-06-27T08:49:11.036Z,109952.00
2019-06-27T08:50:11.055Z,105664.00
2019-06-27T08:51:11.045Z,92704.00
2019-06-27T08:52:11.053Z,83584.00
2019-06-27T08:53:11.066Z,85088.00
2019-06-27T08:54:11.071Z,91744.00
2019-06-27T08:55:11.077Z,96160.00
2019-06-27T08:56:11.083Z,94176.00
2019-06-27T08:57:11.090Z,91904.00
2019-06-27T08:58:11.099Z,92480.00
2019-06-27T08:59:11.108Z,59936.00
2019-06-27T09:00:11.116Z,13508.00
2019-06-27T09:01:11.123Z,4640.00
2019-06-27T09:02:11.133Z,4420.00
2019-06-27T09:03:11.145Z,4300.00
2019-06-27T09:04:11.152Z,4216.00
2019-06-27T09:05:11.152Z,4048.00
2019-06-27T09:06:11.159Z,3984.00
2019-06-27T09:07:11.171Z,3944.00
2019-06-27T09:08:11.171Z,3896.00
2019-06-27T09:09:11.180Z,3844.00
2019-06-27T09:10:11.183Z,3804.00
2019-06-27T09:11:11.192Z,3804.00
2019-06-27T09:12:11.192Z,3820.00
2019-06-27T09:13:11.203Z,3808.00
2019-06-27T09:14:11.220Z,3780.00
2019-06-27T09:15:11.215Z,3736.00
2019-06-27T09:16:11.213Z,3672.00
2019-06-27T09:17:11.215Z,3652.00
2019-06-27T09:18:11.224Z,3608.00
2019-06-27T09:19:11.225Z,3572.00
2019-06-27T09:20:11.248Z,3576.00
2019-06-27T09:21:11.235Z,3540.00
2019-06-27T09:22:11.241Z,3508.00
2019-06-27T09:23:11.239Z,3468.00
2019-06-27T09:24:11.245Z,3432.00
2019-06-27T09:25:11.248Z,3460.00
2019-06-27T09:26:11.274Z,3512.00
2019-06-27T09:27:11.257Z,3512.00
2019-06-27T09:28:11.254Z,3440.00
2019-06-27T09:29:11.272Z,3368.00
2019-06-27T09:30:11.266Z,3340.00
2019-06-27T09:31:11.364Z,3316.00
2019-06-27T09:32:24.801Z,3296.00
2019-06-27T09:33:11.270Z,3296.00
2019-06-27T09:34:11.279Z,3292.00
2019-06-27T09:35:11.274Z,3296.00
2019-06-27T09:36:11.279Z,3292.00
2019-06-27T09:37:11.288Z,3256.00
2019-06-27T09:38:11.281Z,3240.00
2019-06-27T09:39:11.288Z,3216.00
2019-06-27T09:40:11.286Z,3204.00
2019-06-27T09:41:11.310Z,3172.00
2019-06-27T09:42:11.291Z,3192.00
2019-06-27T09:43:11.294Z,3160.00
2019-06-27T09:44:11.289Z,3124.00
2019-06-27T09:45:11.295Z,3104.00
2019-06-27T09:46:11.320Z,3096.00
2019-06-27T09:47:11.308Z,3096.00
2019-06-27T09:48:11.301Z,3108.00
2019-06-27T09:49:11.309Z,3096.00
2019-06-27T09:50:11.306Z,3060.00
2019-06-27T09:51:11.306Z,3032.00
2019-06-27T09:52:11.312Z,3024.00
2019-06-27T09:53:11.318Z,3004.00
2019-06-27T09:54:11.317Z,3020.00
2019-06-27T09:55:11.348Z,3020.00
2019-06-27T09:56:11.321Z,3004.00
2019-06-27T09:57:11.322Z,2992.00
2019-06-27T09:58:11.330Z,2972.00
2019-06-27T09:59:11.327Z,2952.00
2019-06-27T10:00:11.328Z,2940.00
2019-06-27T10:01:11.331Z,2936.00
2019-06-27T10:02:11.326Z,2928.00
2019-06-27T10:03:11.332Z,2928.00
2019-06-27T10:04:11.329Z,2932.00
2019-06-27T10:05:11.337Z,2936.00
2019-06-27T10:06:11.336Z,2928.00
2019-06-27T10:07:11.339Z,2896.00
2019-06-27T10:08:11.359Z,2868.00
2019-06-27T10:09:11.381Z,2876.00
2019-06-27T10:10:11.344Z,2872.00
2019-06-27T10:11:11.357Z,2888.00
2019-06-27T10:12:11.350Z,2888.00
2019-06-27T10:13:11.345Z,2892.00
2019-06-27T10:14:11.349Z,2884.00
2019-06-27T10:15:11.351Z,2876.00
2019-06-27T10:16:11.357Z,2860.00
2019-06-27T10:17:11.358Z,2872.00
2019-06-27T10:18:11.355Z,2876.00
2019-06-27T10:19:11.360Z,2880.00
2019-06-27T10:20:11.361Z,2864.00
2019-06-27T10:21:11.362Z,2872.00
2019-06-27T10:22:11.360Z,2872.00
2019-06-27T10:23:11.366Z,2872.00
2019-06-27T10:24:11.367Z,2876.00
2019-06-27T10:25:11.363Z,2864.00
2019-06-27T10:26:11.367Z,2864.00
2019-06-27T10:27:11.583Z,2852.00
2019-06-27T10:28:11.378Z,2840.00
2019-06-27T10:29:11.381Z,2808.00
2019-06-27T10:30:11.372Z,2808.00
2019-06-27T10:31:11.376Z,2788.00
2019-06-27T10:32:11.380Z,2772.00
2019-06-27T10:33:11.378Z,2780.00
2019-06-27T10:34:11.377Z,2772.00
2019-06-27T10:35:11.381Z,2788.00
2019-06-27T10:36:11.386Z,2784.00
2019-06-27T10:37:11.384Z,2792.00
2019-06-27T10:38:11.399Z,2776.00
2019-06-27T10:39:11.388Z,2748.00
2019-06-27T10:40:11.399Z,2752.00
2019-06-27T10:41:11.392Z,2744.00
2019-06-27T10:42:11.391Z,2756.00
2019-06-27T10:43:11.395Z,2748.00
2019-06-27T10:44:11.391Z,2752.00
2019-06-27T10:45:11.398Z,2752.00
2019-06-27T10:46:11.402Z,2736.00
2019-06-27T10:47:11.405Z,2724.00
2019-06-27T10:48:11.401Z,2712.00
2019-06-27T10:49:11.403Z,2700.00
2019-06-27T10:50:11.411Z,2708.00
2019-06-27T10:51:11.410Z,2680.00
2019-06-27T10:52:11.407Z,2676.00
2019-06-27T10:53:11.407Z,2668.00
2019-06-27T10:54:11.411Z,2676.00
2019-06-27T10:55:11.413Z,2680.00
2019-06-27T10:56:11.413Z,2684.00
2019-06-27T10:57:11.410Z,2680.00
2019-06-27T10:58:11.413Z,2664.00
2019-06-27T10:59:11.416Z,2656.00
2019-06-27T11:01:11.508Z,2652.00
2019-06-27T11:04:12.374Z,2624.00
2019-06-27T11:06:11.723Z,2612.00
2019-06-27T11:07:11.851Z,2616.00
2019-06-27T11:08:11.708Z,2616.00
2019-06-27T11:10:12.627Z,2608.00
2019-06-27T11:11:11.952Z,2608.00
2019-06-27T11:12:12.480Z,2608.00
2019-06-27T11:13:12.866Z,2604.00
2019-06-27T11:15:12.733Z,2592.00
2019-06-27T11:22:12.294Z,2584.00
2019-06-27T11:23:13.010Z,2596.00
2019-06-27T11:25:12.039Z,2572.00
2019-06-27T11:27:14.374Z,2548.00
2019-06-27T11:28:11.644Z,2552.00
2019-06-27T11:34:05.835Z,2444.00
2019-06-27T11:35:59.317Z,2400.00
2019-06-27T11:40:37.434Z,2392.00
2019-06-27T11:41:28.974Z,2408.00
2019-06-27T11:44:53.029Z,2428.00
2019-06-27T11:46:54.574Z,2440.00
2019-06-27T11:47:52.748Z,2452.00
2019-06-27T11:48:53.021Z,2436.00
2019-06-27T11:51:53.330Z,2416.00
2019-06-27T11:52:52.751Z,2412.00
2019-06-27T11:54:53.204Z,2428.00
2019-06-27T11:56:53.661Z,2396.00
2019-06-27T12:00:32.937Z,2404.00
2019-06-27T12:01:32.913Z,2376.00
2019-06-27T12:02:32.908Z,2364.00
2019-06-27T12:03:48.215Z,2368.00
2019-06-27T12:04:32.914Z,2380.00
2019-06-27T12:05:32.918Z,2384.00
2019-06-27T12:06:32.917Z,2380.00
2019-06-27T12:07:32.917Z,2352.00
2019-06-27T12:08:32.924Z,2348.00
2019-06-27T12:09:32.926Z,2348.00
2019-06-27T12:10:32.922Z,2336.00
2019-06-27T12:11:32.925Z,2336.00
2019-06-27T12:12:32.927Z,2344.00
2019-06-27T12:13:32.925Z,2336.00
2019-06-27T12:14:32.933Z,2348.00
2019-06-27T12:15:32.934Z,2348.00
2019-06-27T12:16:32.936Z,2364.00
2019-06-27T12:17:32.935Z,2384.00
2019-06-27T12:18:32.940Z,2388.00
2019-06-27T12:19:32.943Z,2360.00
2019-06-27T12:20:32.941Z,2384.00
2019-06-27T12:21:32.942Z,2364.00
2019-06-27T12:22:32.945Z,2364.00
2019-06-27T12:23:32.949Z,2372.00
2019-06-27T12:24:32.951Z,2384.00
2019-06-27T12:25:32.944Z,2388.00
2019-06-27T12:26:32.950Z,2372.00
2019-06-27T12:27:32.957Z,2392.00
2019-06-27T12:28:32.969Z,2400.00
2019-06-27T12:29:32.957Z,2392.00
2019-06-27T12:30:32.964Z,2388.00
2019-06-27T12:31:32.960Z,2384.00
2019-06-27T12:32:47.169Z,2380.00
2019-06-27T12:33:32.967Z,2388.00
2019-06-27T12:34:32.975Z,2380.00
2019-06-27T12:35:32.968Z,2388.00
2019-06-27T12:36:32.967Z,2376.00
2019-06-27T12:37:32.972Z,2396.00
2019-06-27T12:38:32.975Z,2384.00
2019-06-27T12:39:32.997Z,2404.00
2019-06-27T12:40:32.983Z,2388.00
2019-06-27T12:41:32.977Z,2408.00
2019-06-27T12:42:33.115Z,2396.00
2019-06-27T12:43:32.996Z,2404.00
2019-06-27T12:44:32.992Z,2400.00
2019-06-27T12:45:32.987Z,2392.00
2019-06-27T12:46:32.989Z,2388.00
2019-06-27T12:47:32.992Z,2396.00
2019-06-27T12:48:32.997Z,2396.00